Time,TemperatureF,DewpointF,PressureIn,WindDirection,WindDirectionDegrees,WindSpeedMPH,WindSpeedGustMPH,Humidity,HourlyPrecipIn,Conditions,Clouds,dailyrainin,SoftwareType,DateUTC
2013-01-27 00:10:00,33.8,24.7,29.96,East,90,2.7,-999.0,69,-99.99,,,0.00,Acu-Link.com,2013-01-27 05:10:00,
2013-01-27 00:25:00,33.3,24.6,29.96,East,90,1.7,-999.0,70,-99.99,,,0.00,Acu-Link.com,2013-01-27 05:25:00,
2013-01-27 00:40:00,34.5,25.4,29.96,NE,45,1.7,-999.0,69,-99.99,,,0.00,Acu-Link.com,2013-01-27 05:40:00,
2013-01-27 00:55:00,34.9,25.8,29.97,NNE,22,3.2,-999.0,69,-99.99,,,0.00,Acu-Link.com,2013-01-27 05:55:00,
2013-01-27 01:11:00,33.8,25.1,29.96,East,90,2.2,-999.0,70,-99.99,,,0.00,Acu-Link.com,2013-01-27 06:11:00,
2013-01-27 01:26:00,34.0,25.6,29.97,NNE,22,1.7,-999.0,71,-99.99,,,0.00,Acu-Link.com,2013-01-27 06:26:00,
2013-01-27 01:41:00,33.3,25.3,29.97,NE,45,1.1,-999.0,72,-99.99,,,0.00,Acu-Link.com,2013-01-27 06:41:00,
2013-01-27 01:57:00,32.2,24.9,29.98,ENE,67,2.7,-999.0,74,-99.99,,,0.00,Acu-Link.com,2013-01-27 06:57:00,
2013-01-27 02:27:00,31.3,24.6,30.00,ENE,67,0.0,-999.0,76,-99.99,,,0.00,Acu-Link.com,2013-01-27 07:27:00,
2013-01-27 02:42:00,31.6,24.9,30.00,ENE,67,3.7,-999.0,76,-99.99,,,0.00,Acu-Link.com,2013-01-27 07:42:00,
2013-01-27 02:57:00,32.2,25.5,30.00,East,90,4.7,-999.0,76,-99.99,,,0.00,Acu-Link.com,2013-01-27 07:57:00,
2013-01-27 03:13:00,31.6,25.2,30.00,East,90,3.7,-999.0,77,-99.99,,,0.00,Acu-Link.com,2013-01-27 08:13:00,
2013-01-27 03:28:00,31.3,25.3,30.01,NE,45,3.7,-999.0,78,-99.99,,,0.00,Acu-Link.com,2013-01-27 08:28:00,
2013-01-27 03:43:00,30.6,25.8,30.01,East,90,2.2,-999.0,82,-99.99,,,0.00,Acu-Link.com,2013-01-27 08:43:00,
2013-01-27 03:59:00,29.8,24.4,30.01,NE,45,4.7,-999.0,80,-99.99,,,0.00,Acu-Link.com,2013-01-27 08:59:00,
2013-01-27 04:16:00,29.8,24.1,30.01,ENE,67,4.2,-999.0,79,-99.99,,,0.00,Acu-Link.com,2013-01-27 09:16:00,
2013-01-27 04:32:00,29.5,23.5,30.01,ENE,67,2.7,-999.0,78,-99.99,,,0.00,Acu-Link.com,2013-01-27 09:32:00,
2013-01-27 04:47:00,29.1,23.1,30.02,ENE,67,1.7,-999.0,78,-99.99,,,0.00,Acu-Link.com,2013-01-27 09:47:00,
2013-01-27 05:02:00,28.8,23.4,30.03,East,90,2.2,-999.0,80,-99.99,,,0.00,Acu-Link.com,2013-01-27 10:02:00,
2013-01-27 05:17:00,28.4,23.6,30.03,ENE,67,2.7,-999.0,82,-99.99,,,0.00,Acu-Link.com,2013-01-27 10:17:00,
2013-01-27 05:32:00,28.2,23.7,30.03,NNE,22,2.7,-999.0,83,-99.99,,,0.00,Acu-Link.com,2013-01-27 10:32:00,
2013-01-27 05:48:00,28.0,23.2,30.03,NE,45,4.2,-999.0,82,-99.99,,,0.00,Acu-Link.com,2013-01-27 10:48:00,
2013-01-27 06:03:00,28.0,22.6,30.04,East,90,5.8,-999.0,80,-99.99,,,0.00,Acu-Link.com,2013-01-27 11:03:00,
2013-01-27 06:18:00,28.0,22.0,30.05,South,180,1.7,-999.0,78,-99.99,,,0.00,Acu-Link.com,2013-01-27 11:18:00,
2013-01-27 06:34:00,28.0,22.0,30.06,East,90,3.7,-999.0,78,-99.99,,,0.00,Acu-Link.com,2013-01-27 11:34:00,
2013-01-27 06:49:00,27.7,21.8,30.07,NE,45,3.7,-999.0,78,-99.99,,,0.00,Acu-Link.com,2013-01-27 11:49:00,
2013-01-27 07:04:00,27.5,21.6,30.08,ENE,67,0.0,-999.0,78,-99.99,,,0.00,Acu-Link.com,2013-01-27 12:04:00,
2013-01-27 07:19:00,27.1,21.2,30.08,ENE,67,3.2,-999.0,78,-99.99,,,0.00,Acu-Link.com,2013-01-27 12:19:00,
2013-01-27 07:35:00,27.1,20.6,30.09,NE,45,2.2,-999.0,76,-99.99,,,0.00,Acu-Link.com,2013-01-27 12:35:00,
2013-01-27 07:50:00,27.1,20.2,30.09,ENE,67,3.2,-999.0,75,-99.99,,,0.00,Acu-Link.com,2013-01-27 12:50:00,
2013-01-27 08:05:00,27.1,19.6,30.10,NE,45,3.7,-999.0,73,-99.99,,,0.00,Acu-Link.com,2013-01-27 13:05:00,
2013-01-27 08:21:00,27.5,19.4,30.10,ENE,67,3.2,-999.0,71,-99.99,,,0.00,Acu-Link.com,2013-01-27 13:21:00,
2013-01-27 08:36:00,27.9,19.7,30.11,NE,45,1.7,-999.0,71,-99.99,,,0.00,Acu-Link.com,2013-01-27 13:36:00,
2013-01-27 08:51:00,28.2,20.0,30.11,SSE,157,1.7,-999.0,71,-99.99,,,0.00,Acu-Link.com,2013-01-27 13:51:00,
2013-01-27 09:07:00,28.6,20.4,30.11,ENE,67,3.7,-999.0,71,-99.99,,,0.00,Acu-Link.com,2013-01-27 14:07:00,
2013-01-27 09:22:00,28.8,20.9,30.11,ENE,67,4.2,-999.0,72,-99.99,,,0.00,Acu-Link.com,2013-01-27 14:22:00,
2013-01-27 09:37:00,29.1,20.9,30.11,ENE,67,4.2,-999.0,71,-99.99,,,0.00,Acu-Link.com,2013-01-27 14:37:00,
2013-01-27 09:52:00,29.7,21.5,30.11,ENE,67,4.7,-999.0,71,-99.99,,,0.00,Acu-Link.com,2013-01-27 14:52:00,
2013-01-27 10:08:00,30.0,21.8,30.12,NNW,337,2.2,-999.0,71,-99.99,,,0.00,Acu-Link.com,2013-01-27 15:08:00,
2013-01-27 10:23:00,31.1,22.8,30.13,NNE,22,1.1,-999.0,71,-99.99,,,0.00,Acu-Link.com,2013-01-27 15:23:00,
2013-01-27 10:38:00,31.5,23.2,30.12,NNE,22,2.2,-999.0,71,-99.99,,,0.00,Acu-Link.com,2013-01-27 15:38:00,
2013-01-27 10:54:00,31.8,23.2,30.13,NE,45,2.7,-999.0,70,-99.99,,,0.00,Acu-Link.com,2013-01-27 15:54:00,
2013-01-27 11:09:00,32.0,23.3,30.13,NE,45,0.0,-999.0,70,-99.99,,,0.00,Acu-Link.com,2013-01-27 16:09:00,
2013-01-27 11:24:00,31.5,23.2,30.14,NE,45,3.2,-999.0,71,-99.99,,,0.00,Acu-Link.com,2013-01-27 16:24:00,
2013-01-27 11:40:00,32.9,23.5,30.14,East,90,3.7,-999.0,68,-99.99,,,0.00,Acu-Link.com,2013-01-27 16:40:00,
2013-01-27 11:55:00,33.3,23.9,30.12,ENE,67,3.2,-999.0,68,-99.99,,,0.00,Acu-Link.com,2013-01-27 16:55:00,
2013-01-27 12:10:00,33.6,24.2,30.11,ENE,67,3.7,-999.0,68,-99.99,,,0.00,Acu-Link.com,2013-01-27 17:10:00,
2013-01-27 12:25:00,34.3,24.1,30.11,NE,45,1.7,-999.0,66,-99.99,,,0.00,Acu-Link.com,2013-01-27 17:25:00,
2013-01-27 12:40:00,35.1,24.9,30.11,West,270,1.1,-999.0,66,-99.99,,,0.00,Acu-Link.com,2013-01-27 17:40:00,
2013-01-27 12:56:00,35.2,24.6,30.10,ESE,112,3.7,-999.0,65,-99.99,,,0.00,Acu-Link.com,2013-01-27 17:56:00,
2013-01-27 13:11:00,36.9,25.9,30.09,ENE,67,3.7,-999.0,64,-99.99,,,0.00,Acu-Link.com,2013-01-27 18:11:00,
2013-01-27 13:26:00,36.7,25.7,30.08,ENE,67,3.7,-999.0,64,-99.99,,,0.00,Acu-Link.com,2013-01-27 18:26:00,
2013-01-27 13:42:00,36.5,25.5,30.07,ENE,67,3.2,-999.0,64,-99.99,,,0.00,Acu-Link.com,2013-01-27 18:42:00,
2013-01-27 13:57:00,36.7,26.1,30.08,NE,45,4.7,-999.0,65,-99.99,,,0.00,Acu-Link.com,2013-01-27 18:57:00,
2013-01-27 14:12:00,36.9,25.9,30.09,ENE,67,6.3,-999.0,64,-99.99,,,0.00,Acu-Link.com,2013-01-27 19:12:00,
2013-01-27 14:28:00,37.2,26.5,30.06,ENE,67,3.7,-999.0,65,-99.99,,,0.00,Acu-Link.com,2013-01-27 19:28:00,
2013-01-27 14:43:00,37.8,27.1,30.07,East,90,1.7,-999.0,65,-99.99,,,0.00,Acu-Link.com,2013-01-27 19:43:00,
2013-01-27 14:58:00,38.1,27.0,30.07,NE,45,5.8,-999.0,64,-99.99,,,0.00,Acu-Link.com,2013-01-27 19:58:00,
2013-01-27 15:13:00,37.8,27.1,30.07,NNE,22,2.2,-999.0,65,-99.99,,,0.00,Acu-Link.com,2013-01-27 20:13:00,
2013-01-27 15:29:00,38.3,27.2,30.07,ENE,67,4.2,-999.0,64,-99.99,,,0.00,Acu-Link.com,2013-01-27 20:29:00,
2013-01-27 15:44:00,37.9,27.2,30.08,ENE,67,3.7,-999.0,65,-99.99,,,0.00,Acu-Link.com,2013-01-27 20:44:00,
2013-01-27 15:59:00,38.5,27.4,30.08,East,90,3.2,-999.0,64,-99.99,,,0.00,Acu-Link.com,2013-01-27 20:59:00,
2013-01-27 16:15:00,38.1,27.0,30.07,NE,45,2.2,-999.0,64,-99.99,,,0.00,Acu-Link.com,2013-01-27 21:15:00,
2013-01-27 16:30:00,38.3,27.2,30.08,NE,45,4.2,-999.0,64,-99.99,,,0.00,Acu-Link.com,2013-01-27 21:30:00,
2013-01-27 16:45:00,38.7,27.6,30.08,East,90,1.1,-999.0,64,-99.99,,,0.00,Acu-Link.com,2013-01-27 21:45:00,
2013-01-27 17:01:00,38.7,27.6,30.08,ESE,112,1.1,-999.0,64,-99.99,,,0.00,Acu-Link.com,2013-01-27 22:01:00,
2013-01-27 17:16:00,38.3,27.6,30.08,SSE,157,0.0,-999.0,65,-99.99,,,0.00,Acu-Link.com,2013-01-27 22:16:00,
2013-01-27 17:31:00,38.3,27.6,30.09,WNW,292,0.0,-999.0,65,-99.99,,,0.00,Acu-Link.com,2013-01-27 22:31:00,
2013-01-27 17:46:00,37.6,27.3,30.09,WNW,292,0.0,-999.0,66,-99.99,,,0.00,Acu-Link.com,2013-01-27 22:46:00,
2013-01-27 18:01:00,37.6,27.3,30.10,South,180,1.7,-999.0,66,-99.99,,,0.00,Acu-Link.com,2013-01-27 23:01:00,
2013-01-27 18:16:00,37.4,27.1,30.09,WSW,247,0.0,-999.0,66,-99.99,,,0.00,Acu-Link.com,2013-01-27 23:16:00,
2013-01-27 18:31:00,37.2,26.9,30.10,West,270,0.0,-999.0,66,-99.99,,,0.00,Acu-Link.com,2013-01-27 23:31:00,
2013-01-27 18:47:00,37.0,27.1,30.10,WSW,247,0.0,-999.0,67,-99.99,,,0.00,Acu-Link.com,2013-01-27 23:47:00,
2013-01-27 19:02:00,36.9,27.0,30.10,South,180,0.0,-999.0,67,-99.99,,,0.00,Acu-Link.com,2013-01-28 00:02:00,
2013-01-27 19:17:00,36.9,27.3,30.10,NNE,22,0.0,-999.0,68,-99.99,,,0.00,Acu-Link.com,2013-01-28 00:17:00,
2013-01-27 19:33:00,36.9,27.3,30.11,South,180,0.0,-999.0,68,-99.99,,,0.00,Acu-Link.com,2013-01-28 00:33:00,
2013-01-27 19:48:00,36.9,27.3,30.10,East,90,0.0,-999.0,68,-99.99,,,0.00,Acu-Link.com,2013-01-28 00:48:00,
2013-01-27 20:03:00,36.9,27.7,30.09,SSE,157,0.0,-999.0,69,-99.99,,,0.00,Acu-Link.com,2013-01-28 01:03:00,
2013-01-27 20:19:00,36.9,27.7,30.10,South,180,0.0,-999.0,69,-99.99,,,0.00,Acu-Link.com,2013-01-28 01:19:00,
2013-01-27 20:34:00,36.9,27.7,30.10,West,270,0.0,-999.0,69,-99.99,,,0.00,Acu-Link.com,2013-01-28 01:34:00,
2013-01-27 20:49:00,36.9,27.7,30.09,South,180,0.0,-999.0,69,-99.99,,,0.00,Acu-Link.com,2013-01-28 01:49:00,
2013-01-27 21:04:00,36.9,28.4,30.10,South,180,0.0,-999.0,71,-99.99,,,0.00,Acu-Link.com,2013-01-28 02:04:00,
2013-01-27 21:20:00,36.9,28.0,30.10,South,180,0.0,-999.0,70,-99.99,,,0.00,Acu-Link.com,2013-01-28 02:20:00,
2013-01-27 21:35:00,36.9,28.0,30.10,South,180,1.7,-999.0,70,-99.99,,,0.00,Acu-Link.com,2013-01-28 02:35:00,
2013-01-27 21:51:00,36.9,28.0,30.10,South,180,1.1,-999.0,70,-99.99,,,0.00,Acu-Link.com,2013-01-28 02:51:00,
2013-01-27 22:06:00,36.9,28.0,30.09,South,180,1.1,-999.0,70,-99.99,,,0.00,Acu-Link.com,2013-01-28 03:06:00,
2013-01-27 22:21:00,36.9,27.7,30.09,South,180,2.2,-999.0,69,-99.99,,,0.00,Acu-Link.com,2013-01-28 03:21:00,
2013-01-27 22:37:00,36.9,27.3,30.09,SSW,202,2.7,-999.0,68,-99.99,,,0.00,Acu-Link.com,2013-01-28 03:37:00,
2013-01-27 22:52:00,36.9,27.7,30.09,South,180,2.7,-999.0,69,-99.99,,,0.00,Acu-Link.com,2013-01-28 03:52:00,
2013-01-27 23:07:00,36.9,27.7,30.09,SSE,157,3.7,-999.0,69,-99.99,,,0.00,Acu-Link.com,2013-01-28 04:07:00,
2013-01-27 23:23:00,36.9,28.0,30.07,SW,225,1.7,-999.0,70,-99.99,,,0.00,Acu-Link.com,2013-01-28 04:23:00,
2013-01-27 23:38:00,36.7,27.9,30.08,SW,225,2.7,-999.0,70,-99.99,,,0.00,Acu-Link.com,2013-01-28 04:38:00,
2013-01-27 23:53:00,36.5,28.0,30.07,SSW,202,2.2,-999.0,71,-99.99,,,0.00,Acu-Link.com,2013-01-28 04:53:00,